Latest Coastal Weather Observations for Geraldton Airport

IDW60701

Issued at 9:02 pm WST Wednesday 4 March 2015 (issued every 10 minutes, with the page automatically refreshed every 10 minutes)

About coastal observations | Map of coastal stations | Coastal observations for WA | Marine services | Other Formats
Station Details ID: 008315 Name: GERALDTON AIRPORT Lat: -28.80 Lon: 114.70 Height: 29.7 m
Data from the previous 72 hours. | See also: Recent months at Geraldton Airport
Date/Time
WST
Temp

°C
Wind Pressure Rain
since 9am
mm
Weather Cloud Vis
km
Sea
Height
m
Swell
Dir
 
Speed
knots
Gust
knots
hPa Trend Height
m
Period
s
Dir
04/09:00pm 26.3 E 20 26 1016.6 - 0.0 - - 10 - - - -
04/08:30pm 26.8 E 18 23 1016.4 - 0.0 - - 10 - - - -
04/08:00pm 27.6 E 19 24 1015.7 - 0.0 - - 10 - - - -
04/07:30pm 28.5 E 16 22 1015.2 - 0.0 - - 10 - - - -
04/07:00pm 29.1 E 16 25 1014.7 - 0.0 - - 10 - - - -
04/06:58pm 29.0 E 15 25 1014.7 - 0.0 - - 10 - - - -
04/06:30pm 29.9 E 17 22 1014.3 - 0.0 - - 10 - - - -
04/06:00pm 30.6 E 19 24 1014.0 - 0.0 - Mostly clear 10 - - - -
04/05:45pm 31.3 ESE 16 28 1013.9 - 0.0 - Partly cloudy 10 - - - -
04/05:30pm 31.0 ESE 18 23 1013.9 - 0.0 - Partly cloudy 10 - - - -
04/05:00pm 32.2 E 18 25 1013.7 - 0.0 - Partly cloudy 10 - - - -
04/04:30pm 32.4 E 19 26 1013.4 - 0.0 - Partly cloudy 10 - - - -
04/04:00pm 32.8 E 17 22 1013.4 - 0.0 - Partly cloudy 10 - - - -
04/03:30pm 32.9 E 15 22 1013.4 - 0.0 - Partly cloudy 10 - - - -
04/03:00pm 32.6 ESE 16 23 1013.4 F 0.0 Fine Mostly cloudy 30 - - - -
04/02:41pm 32.9 ESE 16 27 1013.5 - 0.0 - Partly cloudy 10 - - - -
04/02:30pm 32.6 ESE 16 21 1013.7 - 0.0 - Partly cloudy 10 - - - -
04/02:00pm 32.5 E 14 20 1013.9 - 0.0 - Cloudy 10 - - - -
04/01:30pm 32.0 E 15 20 1014.3 - 0.0 - Partly cloudy 10 - - - -
04/01:00pm 31.8 E 15 19 1014.6 - 0.0 - Partly cloudy 10 - - - -
04/12:30pm 31.9 E 13 19 1014.9 - 0.0 - Partly cloudy 10 - - - -
04/12:00pm 32.3 E 14 20 1015.0 F 0.0 Fine Mostly clear 30 - - - -
04/11:51am 31.3 E 15 27 1015.2 - 0.0 - - 10 - - - -
04/11:30am 30.9 ENE 13 20 1015.6 - 0.0 - - 10 - - - -
04/11:00am 30.3 ENE 17 21 1016.0 - 0.0 - - 10 - - - -
04/10:30am 29.7 ENE 17 23 1016.1 - 0.0 - Partly cloudy 10 - - - -
04/10:00am 29.1 ENE 17 23 1016.4 - 0.0 - Partly cloudy 10 - - - -
04/09:00am 26.6 E 17 21 1016.8 R 0.0 Fine Mostly clear 30 - - - -
04/07:00am 21.8 SSE 7 8 1016.4 - 0.0 - - 10 - - - -
04/06:30am 21.0 SE 6 8 1016.0 - 0.0 - - 10 - - - -
04/06:00am 19.9 SSE 6 7 1015.4 R 0.0 Fine Mostly clear 30 - - - -
04/05:30am 20.2 SE 6 8 1015.3 - 0.0 - - 10 - - - -
04/05:00am 20.5 SE 11 14 1015.1 - 0.0 - - 10 - - - -
04/04:30am 20.4 SE 10 11 1015.0 - 0.0 - - 10 - - - -
04/04:00am 20.5 SE 7 9 1014.9 - 0.0 - - 10 - - - -
04/03:30am 20.8 SE 9 10 1014.7 - 0.0 - - 10 - - - -
04/03:00am 20.8 SE 7 8 1014.4 - 0.0 - - 10 - - - -
04/02:30am 21.1 SE 7 8 1014.3 - 0.0 - - 10 - - - -
04/02:00am 21.7 SSE 8 9 1014.2 - 0.0 - - 10 - - - -
04/01:30am 21.9 SSE 7 8 1014.4 - 0.0 - - 10 - - - -
04/01:00am 22.6 SSE 7 8 1014.6 - 0.0 - - 10 - - - -
04/12:30am 22.9 S 7 8 1014.7 - 0.0 - - 10 - - - -
04/12:00am 23.4 SE 5 6 1014.6 - 0.0 - - 10 - - - -
 
Date/Time
WST
Temp

°C
Wind Pressure Rain
since 9am
mm
Weather Cloud Vis
km
Sea
Height
m
Swell
Dir
 
Speed
knots
Gust
knots
hPa Trend Height
m
Period
s
Dir
03/11:30pm 24.3 E 7 8 1014.8 - 0.0 - - 10 - - - -
03/11:00pm 25.1 E 8 9 1014.8 - 0.0 - - 10 - - - -
03/10:30pm 26.0 E 8 11 1014.9 - 0.0 - - 10 - - - -
03/10:00pm 26.6 ENE 12 14 1014.8 - 0.0 - - 10 - - - -
03/09:30pm 27.1 E 14 17 1014.7 - 0.0 - - 10 - - - -
03/09:00pm 28.0 E 14 19 1014.0 - 0.0 - - 10 - - - -
03/08:30pm 27.3 ESE 11 14 1013.6 - 0.0 - Partly cloudy 10 - - - -
03/08:00pm 25.1 S 9 13 1013.1 - 0.0 - Partly cloudy 10 - - - -
03/07:30pm 24.4 S 11 14 1012.7 - 0.0 - Partly cloudy 10 - - - -
03/07:00pm 24.7 S 13 16 1012.2 - 0.0 - Partly cloudy 10 - - - -
03/06:30pm 25.6 S 14 19 1011.9 - 0.0 - - 10 - - - -
03/06:00pm 27.4 S 12 19 1011.4 - 0.0 - Partly cloudy 10 - - - -
03/05:30pm 28.7 SSE 11 18 1011.3 - 0.0 - Partly cloudy 10 - - - -
03/05:00pm 31.8 ESE 16 22 1011.3 - 0.0 - Partly cloudy 10 - - - -
03/04:30pm 33.1 E 17 19 1011.1 - 0.0 - Partly cloudy 10 - - - -
03/04:00pm 33.1 ESE 16 23 1011.2 - 0.0 - Partly cloudy 10 - - - -
03/03:30pm 33.2 ESE 15 21 1011.5 - 0.0 - Partly cloudy 10 - - - -
03/03:00pm 30.5 S 14 18 1011.9 F 0.0 Fine Mostly clear 30 - - - -
03/02:30pm 30.4 S 15 19 1012.3 - 0.0 - Partly cloudy 10 - - - -
03/02:00pm 31.8 SE 15 21 1012.6 - 0.0 - Partly cloudy 10 - - - -
03/01:30pm 31.0 ESE 16 25 1012.9 - 0.0 - Partly cloudy 10 - - - -
03/01:22pm 31.5 ESE 15 25 1012.8 - 0.0 - Mostly clear 10 - - - -
03/01:00pm 30.3 ESE 14 20 1013.3 - 0.0 - Mostly clear 10 - - - -
03/12:30pm 30.2 ESE 15 20 1013.7 - 0.0 - Mostly clear 10 - - - -
03/12:13pm 30.3 ESE 15 28 1013.9 - 0.0 - Mostly clear 10 - - - -
03/12:00pm 28.9 ESE 14 22 1014.1 F 0.0 Fine Mostly clear 30 - - - -
03/11:30am 28.5 ESE 15 20 1014.6 - 0.0 - Mostly clear 10 - - - -
03/11:00am 28.0 ESE 14 20 1014.8 - 0.0 - Mostly clear 10 - - - -
03/10:30am 26.9 ESE 15 21 1015.1 - 0.0 - Mostly clear 10 - - - -
03/10:00am 26.6 ESE 16 20 1015.2 - 0.0 - Mostly clear 10 - - - -
03/09:30am 26.4 ESE 15 20 1015.2 - 0.0 - Mostly clear 10 - - - -
03/09:00am 25.1 ESE 15 20 1015.3 R 0.0 Fine Mostly clear 30 - - - -
03/08:30am 24.1 SE 14 20 1015.4 - 0.0 - - 10 - - - -
03/08:00am 22.2 SE 13 16 1015.5 - 0.0 - - 10 - - - -
03/07:30am 21.4 SE 11 15 1015.3 - 0.0 - - 10 - - - -
03/07:00am 20.3 SE 10 13 1015.1 - 0.0 - - 10 - - - -
03/06:30am 19.7 SE 10 13 1014.6 - 0.0 - - 10 - - - -
03/06:00am 19.9 SE 10 12 1014.1 R 0.0 Fine Mostly clear 30 - - - -
03/05:30am 20.1 SE 9 11 1014.0 - 0.0 - - 10 - - - -
03/05:00am 20.4 SE 9 13 1013.8 - 0.0 - - 10 - - - -
03/04:30am 21.0 SE 13 16 1013.5 - 0.0 - Partly cloudy 10 - - - -
03/04:00am 21.4 SE 11 15 1013.4 - 0.0 - Partly cloudy 10 - - - -
03/03:30am 21.7 SE 13 16 1013.4 - 0.0 - Cloudy 10 - - - -
03/03:00am 21.8 SE 11 14 1013.2 - 0.0 - Cloudy 10 - - - -
03/02:30am 21.9 SE 11 15 1013.1 - 0.0 - Cloudy 10 - - - -
03/02:00am 21.5 SE 11 12 1013.0 - 0.0 - Cloudy 10 - - - -
03/01:30am 21.7 SE 12 15 1013.2 - 0.0 - Cloudy 10 - - - -
03/01:00am 21.6 SE 12 15 1013.2 - 0.0 - Cloudy 10 - - - -
03/12:30am 21.4 SE 13 16 1013.0 - 0.0 - - 10 - - - -
03/12:00am 21.4 SSE 12 15 1012.9 - 0.0 - - 10 - - - -
 
Date/Time
WST
Temp

°C
Wind Pressure Rain
since 9am
mm
Weather Cloud Vis
km
Sea
Height
m
Swell
Dir
 
Speed
knots
Gust
knots
hPa Trend Height
m
Period
s
Dir
02/11:30pm 21.5 SSE 12 15 1013.0 - 0.0 - Partly cloudy 10 - - - -
02/11:00pm 21.8 SSE 11 13 1013.0 - 0.0 - Partly cloudy 10 - - - -
02/10:30pm 21.9 SSE 10 12 1013.1 - 0.0 - Partly cloudy 10 - - - -
02/10:00pm 22.0 SE 11 13 1013.0 - 0.0 - - 10 - - - -
02/09:30pm 22.3 SE 9 11 1013.1 - 0.0 - Partly cloudy 10 - - - -
02/09:00pm 22.7 SE 11 13 1012.6 - 0.0 - Mostly clear 10 - - - -
02/08:30pm 23.0 SE 12 14 1012.2 - 0.0 - Partly cloudy 10 - - - -
02/08:00pm 23.4 SE 13 17 1011.9 - 0.0 - - 10 - - - -
02/07:30pm 23.8 SE 16 19 1011.5 - 0.0 - - 10 - - - -
02/07:00pm 24.4 SE 17 23 1010.9 - 0.0 - - 10 - - - -
02/06:30pm 25.2 SE 18 25 1010.4 - 0.0 - Cloudy 10 - - - -
02/06:00pm 25.6 SE 18 23 1010.0 - 0.0 - Cloudy 10 - - - -
02/05:30pm 26.2 SSE 17 22 1009.8 - 0.0 - Mostly clear 10 - - - -
02/05:00pm 26.9 SE 21 26 1009.6 - 0.0 - Mostly clear 10 - - - -
02/04:30pm 27.1 SE 23 28 1009.3 - 0.0 - Mostly clear 10 - - - -
02/04:00pm 26.7 SE 21 25 1009.4 - 0.0 - Mostly clear 10 - - - -
02/03:30pm 27.2 SSE 22 27 1009.3 - 0.0 - Mostly clear 10 - - - -
02/03:00pm 27.4 SE 22 29 1009.3 R 0.0 Distant precip. Mostly cloudy 30 - - - -
02/02:30pm 27.0 SSE 21 24 1009.6 - 0.0 - Mostly clear 10 - - - -
02/02:00pm 27.9 SSE 19 25 1009.7 - 0.0 - Mostly clear 10 - - - -
02/01:30pm 27.8 SSE 20 27 1009.8 - 0.0 - Mostly clear 10 - - - -
02/01:00pm 26.8 SSE 19 23 1009.7 - 0.0 - Mostly clear 10 - - - -
02/12:30pm 27.0 SSE 18 23 1010.0 - 0.0 - Partly cloudy 10 - - - -
02/12:00pm 26.3 SSE 16 19 1010.1 R 0.0 Showers Mostly cloudy 25 - - - -
02/11:30am 26.3 SE 15 19 1010.5 - 0.0 Showers Mostly clear 10 - - - -
02/11:00am 26.8 SE 15 19 1010.5 - 0.0 - Mostly clear 10 - - - -
02/10:30am 26.2 SE 15 19 1010.5 - 0.0 - Mostly clear 10 - - - -
02/10:00am 24.9 SE 12 15 1010.5 - 0.0 - Mostly clear 10 - - - -
02/09:30am 23.5 SE 12 14 1010.4 - 0.0 - Mostly clear 10 - - - -
02/09:00am 23.4 S 11 14 1010.1 R 58.0 Distant precip. Mostly cloudy 25 - - - -
02/08:30am 22.8 SSE 10 11 1010.0 - 58.0 - Mostly clear 10 - - - -
02/08:00am 22.3 SSE 8 9 1009.9 - 58.0 - Mostly clear 10 - - - -
02/07:30am 21.5 SSE 7 9 1009.7 - 58.0 - Mostly clear 10 - - - -
02/07:00am 21.1 SSE 7 9 1009.4 - 58.0 - Mostly clear 10 - - - -
02/06:30am 20.8 SE 8 9 1009.0 - 58.0 - Mostly clear 10 - - - -
02/06:00am 20.9 SE 7 8 1008.7 R 58.0 Drizzle Mostly cloudy 20 - - - -
02/05:30am 20.8 ESE 5 6 1008.5 - 58.0 - Partly cloudy 10 - - - -
02/05:00am 20.7 SSE 5 7 1008.0 - 58.0 - Cloudy 10 - - - -
02/04:30am 20.6 SSE 7 9 1007.9 - 58.0 - Cloudy 10 - - - -
02/04:19am 20.7 SE 5 7 1007.9 - 58.0 - Partly cloudy 10 - - - -
02/04:00am 20.6 SE 5 7 1007.9 - 58.0 - Cloudy 10 - - - -
02/03:41am 20.6 SE 7 8 1007.9 - 58.0 - Partly cloudy 10 - - - -
02/03:30am 20.7 SSE 8 9 1007.8 - 58.0 - Partly cloudy 10 - - - -
02/03:00am 20.6 SSE 8 9 1007.8 - 58.0 - Cloudy 10 - - - -
02/02:30am 20.6 SSE 10 13 1008.3 - 58.0 - Partly cloudy 10 - - - -
02/02:00am 20.4 SSE 13 17 1008.2 - 58.0 - Partly cloudy 10 - - - -
02/01:30am 20.7 S 12 16 1007.8 - 58.0 - Partly cloudy 10 - - - -
02/01:00am 20.6 S 12 16 1008.0 - 58.0 - Partly cloudy 10 - - - -
02/12:32am 21.2 S 11 15 1008.4 - 57.4 - Partly cloudy 10 - - - -
02/12:30am 21.2 S 11 15 1008.5 - 57.4 - Partly cloudy 10 - - - -
02/12:00am 21.4 ESE 9 11 1008.4 - 55.4 - Cloudy 7 - - - -
 
Date/Time
WST
Temp

°C
Wind Pressure Rain
since 9am
mm
Weather Cloud Vis
km
Sea
Height
m
Swell
Dir
 
Speed
knots
Gust
knots
hPa Trend Height
m
Period
s
Dir
01/11:50pm 21.0 SSE 13 15 1008.3 - 54.8 - Partly cloudy 7 - - - -
01/11:30pm 21.3 S 17 22 1008.4 - 53.4 - Partly cloudy 4 - - - -
01/11:01pm 21.3 SW 13 17 1008.3 - 28.4 - Partly cloudy 0.8 - - - -
01/11:00pm 21.3 SW 13 17 1008.3 - 27.0 - Partly cloudy 0.9 - - - -
01/10:30pm 22.4 S 9 13 1007.6 - 2.2 - Cloudy 9 - - - -
01/10:20pm 22.6 S 10 13 1008.0 - 1.6 - Cloudy 8 - - - -
01/10:19pm 22.7 S 10 13 1008.0 - 1.6 - Cloudy 9 - - - -
01/10:01pm 23.5 SSE 10 13 1008.2 - 0.6 - Partly cloudy 8 - - - -
01/10:00pm 23.6 SSE 10 13 1008.2 - 0.6 - Partly cloudy 9 - - - -
01/09:30pm 23.7 SE 10 11 1008.1 - 0.0 - Partly cloudy 10 - - - -

Other Formats:

Comma delimited format used in spreadsheet applications
http://www.bom.gov.au/fwo/IDW60701/IDW60701.94403.axf

JavaScript Object Notation format (JSON) in row-major order
http://www.bom.gov.au/fwo/IDW60701/IDW60701.94403.json